createdAt,value
2023-03-06T00:00:31.834Z,99895.72
2023-03-06T00:02:58.710Z,99887.88
2023-03-06T00:05:25.827Z,99895.41
2023-03-06T00:07:52.299Z,99896.25
2023-03-06T00:10:22.527Z,99891.06
2023-03-06T00:12:51.459Z,99887.44
2023-03-06T00:15:17.959Z,99890.41
2023-03-06T00:17:44.421Z,99890.31
2023-03-06T00:20:11.870Z,99886.06
2023-03-06T00:22:38.805Z,99885.31
2023-03-06T00:25:06.398Z,99880.03
2023-03-06T00:27:33.094Z,99873.25
2023-03-06T00:30:00.926Z,99878.22
2023-03-06T00:32:28.220Z,99869.75
2023-03-06T00:34:56.188Z,99872.59
2023-03-06T00:37:24.415Z,99871.97
2023-03-06T00:39:51.402Z,99870.06
2023-03-06T00:42:19.196Z,99866.44
2023-03-06T00:44:45.937Z,99863.69
2023-03-06T00:47:12.777Z,99862.66
2023-03-06T00:49:39.329Z,99866.44
2023-03-06T00:52:05.786Z,99856.56
2023-03-06T00:54:32.141Z,99862.22
2023-03-06T00:56:58.439Z,99859.88
2023-03-06T00:59:24.787Z,99843.13
2023-03-06T01:01:51.091Z,99840.03
2023-03-06T01:04:17.620Z,99838.13
2023-03-06T01:07:02.410Z,99830.41
2023-03-06T01:09:29.213Z,99822.69
2023-03-06T01:11:56.148Z,99827.63
2023-03-06T01:14:22.487Z,99816.91
2023-03-06T01:16:48.790Z,99818.09
2023-03-06T01:19:15.606Z,99810.34
2023-03-06T01:21:41.904Z,99807.94
2023-03-06T01:24:08.413Z,99802.63
2023-03-06T01:26:34.805Z,99809.41
2023-03-06T01:29:02.048Z,99802.41
2023-03-06T01:31:28.502Z,99792.97
2023-03-06T01:33:55.159Z,99793.09
2023-03-06T01:36:21.541Z,99797.31
2023-03-06T01:38:47.871Z,99789.38
2023-03-06T01:41:15.800Z,99784.28
2023-03-06T01:43:45.316Z,99781.41
2023-03-06T01:46:26.641Z,99773.16
2023-03-06T01:49:16.506Z,99783.44
2023-03-06T01:51:53.470Z,99776.44
2023-03-06T01:54:26.707Z,99771.47
2023-03-06T01:56:59.193Z,99773.50
2023-03-06T01:59:26.897Z,99772.41
2023-03-06T02:01:55.209Z,99770.00
2023-03-06T02:04:21.792Z,99758.00
2023-03-06T02:06:48.335Z,99773.69
2023-03-06T02:09:15.140Z,99768.94
2023-03-06T02:11:46.086Z,99768.19
2023-03-06T02:14:16.062Z,99757.25
2023-03-06T02:16:43.555Z,99759.91
2023-03-06T02:19:30.034Z,99755.97
2023-03-06T02:21:56.490Z,99753.22
2023-03-06T02:24:36.888Z,99753.34
2023-03-06T02:27:05.305Z,99748.78
2023-03-06T02:29:31.755Z,99748.16
2023-03-06T02:31:58.090Z,99742.84
2023-03-06T02:34:24.356Z,99732.13
2023-03-06T02:36:58.782Z,99727.06
2023-03-06T02:39:28.032Z,99722.00
2023-03-06T02:41:54.755Z,99724.53
2023-03-06T02:44:21.801Z,99735.63
2023-03-06T02:46:48.081Z,99729.59
2023-03-06T02:49:14.382Z,99714.03
2023-03-06T02:51:40.754Z,99726.09
2023-03-06T02:54:07.094Z,99724.53
2023-03-06T02:56:33.480Z,99726.94
2023-03-06T02:58:59.837Z,99732.03
2023-03-06T03:01:26.169Z,99717.31
2023-03-06T03:03:52.595Z,99718.16
2023-03-06T03:06:19.053Z,99714.78
2023-03-06T03:08:45.493Z,99712.31
2023-03-06T03:11:12.386Z,99711.47
2023-03-06T03:13:38.926Z,99709.59
2023-03-06T03:16:10.873Z,99708.09
2023-03-06T03:18:37.249Z,99713.28
2023-03-06T03:21:07.728Z,99704.06
2023-03-06T03:23:34.038Z,99703.31
2023-03-06T03:26:11.791Z,99710.31
2023-03-06T03:28:38.135Z,99705.25
2023-03-06T03:31:06.604Z,99706.81
2023-03-06T03:33:33.466Z,99705.56
2023-03-06T03:36:01.901Z,99709.78
2023-03-06T03:38:29.135Z,99697.72
2023-03-06T03:40:55.568Z,99691.78
2023-03-06T03:43:21.912Z,99703.75
2023-03-06T03:45:48.344Z,99699.63
2023-03-06T03:48:14.751Z,99692.84
2023-03-06T03:50:41.966Z,99694.34
2023-03-06T03:53:08.339Z,99692.41
2023-03-06T03:55:34.671Z,99695.69
2023-03-06T03:58:00.953Z,99688.09
2023-03-06T04:00:27.363Z,99679.59
2023-03-06T04:02:53.659Z,99686.47
2023-03-06T04:05:20.094Z,99681.19
2023-03-06T04:07:46.471Z,99677.38
2023-03-06T04:10:13.368Z,99677.38
2023-03-06T04:12:39.837Z,99674.00
2023-03-06T04:15:07.533Z,99672.50
2023-03-06T04:17:34.906Z,99667.84
2023-03-06T04:20:02.172Z,99663.38
2023-03-06T04:22:28.579Z,99665.09
2023-03-06T04:24:54.903Z,99658.94
2023-03-06T04:27:21.298Z,99658.94
2023-03-06T04:29:47.676Z,99656.28
2023-03-06T04:32:14.241Z,99665.09
2023-03-06T04:34:41.181Z,99663.03
2023-03-06T04:37:11.986Z,99655.94
2023-03-06T04:39:51.797Z,99654.25
2023-03-06T04:42:18.617Z,99632.88
2023-03-06T04:44:45.532Z,99644.00
2023-03-06T04:47:12.562Z,99645.03
2023-03-06T04:49:38.894Z,99642.19
2023-03-06T04:52:05.542Z,99631.53
2023-03-06T04:54:31.998Z,99640.22
2023-03-06T04:56:58.719Z,99637.91
2023-03-06T04:59:25.033Z,99639.31
2023-03-06T05:01:51.585Z,99627.75
2023-03-06T05:04:17.909Z,99636.22
2023-03-06T05:06:44.316Z,99622.47
2023-03-06T05:09:10.629Z,99627.75
2023-03-06T05:11:36.956Z,99619.94
2023-03-06T05:14:03.362Z,99618.84
2023-03-06T05:16:29.721Z,99621.38
2023-03-06T05:18:56.156Z,99613.53
2023-03-06T05:21:22.515Z,99623.28
2023-03-06T05:23:48.924Z,99612.38
2023-03-06T05:26:15.661Z,99623.56
2023-03-06T05:28:42.011Z,99616.00
2023-03-06T05:31:08.495Z,99616.28
2023-03-06T05:33:36.134Z,99614.28
2023-03-06T05:36:03.655Z,99609.63
2023-03-06T05:38:30.040Z,99607.00
2023-03-06T05:40:56.350Z,99605.19
2023-03-06T05:43:22.811Z,99604.81
2023-03-06T05:45:50.427Z,99612.00
2023-03-06T05:48:16.834Z,99607.53
2023-03-06T05:50:43.140Z,99608.03
2023-03-06T05:53:09.474Z,99608.25
2023-03-06T05:55:35.801Z,99612.09
2023-03-06T05:58:02.168Z,99612.22
2023-03-06T06:00:28.547Z,99610.28
2023-03-06T06:02:54.933Z,99618.56
2023-03-06T06:05:21.213Z,99622.88
2023-03-06T06:07:47.543Z,99624.91
2023-03-06T06:10:14.027Z,99622.50
2023-03-06T06:12:40.329Z,99619.63
2023-03-06T06:15:07.364Z,99605.78
2023-03-06T06:17:33.693Z,99613.25
2023-03-06T06:20:00.195Z,99621.44
2023-03-06T06:22:26.495Z,99617.22
2023-03-06T06:24:52.941Z,99615.41
2023-03-06T06:27:19.306Z,99615.47
2023-03-06T06:29:45.644Z,99617.94
2023-03-06T06:32:11.992Z,99621.00
2023-03-06T06:34:38.373Z,99604.41
2023-03-06T06:37:05.304Z,99622.72
2023-03-06T06:39:31.682Z,99614.66
2023-03-06T06:42:20.054Z,99619.50
2023-03-06T06:44:44.381Z,99618.66
2023-03-06T06:47:26.389Z,99625.63
2023-03-06T06:49:54.681Z,99615.91
2023-03-06T06:52:22.011Z,99622.16
2023-03-06T06:54:48.462Z,99621.94
2023-03-06T06:57:15.678Z,99617.81
2023-03-06T06:59:42.309Z,99629.69
2023-03-06T07:02:11.968Z,99638.97
2023-03-06T07:04:42.458Z,99637.25
2023-03-06T07:07:15.590Z,99631.44
2023-03-06T07:09:42.213Z,99633.13
2023-03-06T07:12:08.517Z,99631.00
2023-03-06T07:14:36.080Z,99633.41
2023-03-06T07:17:02.479Z,99624.72
2023-03-06T07:19:28.844Z,99623.88
2023-03-06T07:21:55.329Z,99633.97
2023-03-06T07:24:21.694Z,99621.84
2023-03-06T07:26:48.321Z,99624.72
2023-03-06T07:29:15.027Z,99626.09
2023-03-06T07:31:41.342Z,99625.13
2023-03-06T07:34:07.714Z,99632.00
2023-03-06T07:36:34.793Z,99633.53
2023-03-06T07:39:01.175Z,99638.84
2023-03-06T07:41:27.605Z,99640.88
2023-03-06T07:43:53.943Z,99631.22
2023-03-06T07:46:20.365Z,99635.22
2023-03-06T07:48:46.765Z,99634.38
2023-03-06T07:51:18.976Z,99632.13
2023-03-06T07:53:45.599Z,99635.78
2023-03-06T07:56:12.575Z,99628.06
2023-03-06T07:58:41.798Z,99631.94
2023-03-06T08:01:16.704Z,99638.84
2023-03-06T08:03:43.362Z,99640.28
2023-03-06T08:09:08.200Z,99644.56
2023-03-06T08:11:34.578Z,99639.41
2023-03-06T08:14:00.993Z,99644.84
2023-03-06T08:16:29.790Z,99645.25
2023-03-06T08:18:57.580Z,99649.09
2023-03-06T08:21:26.733Z,99652.38
2023-03-06T08:23:53.841Z,99650.44
2023-03-06T08:26:29.232Z,99657.81
2023-03-06T08:28:57.600Z,99656.53
2023-03-06T08:31:44.675Z,99655.03
2023-03-06T08:34:14.047Z,99657.25
2023-03-06T08:36:41.072Z,99660.66
2023-03-06T08:39:08.400Z,99652.81
2023-03-06T08:41:36.050Z,99654.88
2023-03-06T08:44:03.250Z,99660.41
2023-03-06T08:46:30.822Z,99659.94
2023-03-06T08:48:57.432Z,99657.75
2023-03-06T08:51:24.832Z,99665.25
2023-03-06T08:53:52.064Z,99662.72
2023-03-06T08:56:25.057Z,99656.78
2023-03-06T08:58:52.428Z,99657.88
2023-03-06T09:01:21.711Z,99654.94
2023-03-06T09:03:48.508Z,99662.94
2023-03-06T09:06:15.478Z,99667.16
2023-03-06T09:08:43.888Z,99659.16
2023-03-06T09:11:11.945Z,99663.53
2023-03-06T09:13:38.759Z,99661.22
2023-03-06T09:16:05.413Z,99653.84
2023-03-06T09:18:31.850Z,99659.41
2023-03-06T09:20:58.205Z,99665.31
2023-03-06T09:23:24.564Z,99667.72
2023-03-06T09:25:55.416Z,99665.47
2023-03-06T09:28:22.375Z,99664.13
2023-03-06T09:30:48.753Z,99670.03
2023-03-06T09:33:15.563Z,99677.56
2023-03-06T09:35:49.212Z,99669.19
2023-03-06T09:38:15.625Z,99669.06
2023-03-06T09:40:44.940Z,99667.25
2023-03-06T09:43:20.198Z,99671.00
2023-03-06T09:45:46.727Z,99662.00
2023-03-06T09:48:15.466Z,99667.13
2023-03-06T09:50:50.533Z,99671.94
2023-03-06T09:53:41.225Z,99667.00
2023-03-06T09:56:19.150Z,99665.31
2023-03-06T09:58:52.113Z,99663.63
2023-03-06T10:01:35.601Z,99670.56
2023-03-06T10:04:20.476Z,99656.22
2023-03-06T10:06:49.474Z,99658.13
2023-03-06T10:09:24.909Z,99669.16
2023-03-06T10:11:56.862Z,99654.38
2023-03-06T10:14:37.675Z,99658.31
2023-03-06T10:17:05.439Z,99658.97
2023-03-06T10:19:35.007Z,99660.59
2023-03-06T10:22:14.486Z,99657.53
2023-03-06T10:25:13.369Z,99653.41
2023-03-06T10:27:50.180Z,99659.03
2023-03-06T10:30:28.946Z,99660.91
2023-03-06T10:33:08.013Z,99655.91
2023-03-06T10:35:44.235Z,99660.81
2023-03-06T10:38:23.295Z,99660.63
2023-03-06T10:41:06.007Z,99657.84
2023-03-06T10:43:36.127Z,99650.25
2023-03-06T10:46:02.858Z,99647.81
2023-03-06T10:48:30.864Z,99646.56
2023-03-06T10:51:19.499Z,99637.34
2023-03-06T10:53:56.067Z,99647.19
2023-03-06T10:56:40.961Z,99644.31
2023-03-06T10:59:14.699Z,99647.50
2023-03-06T11:01:49.385Z,99637.63
2023-03-06T11:04:21.119Z,99643.81
2023-03-06T11:06:48.169Z,99640.31
2023-03-06T11:09:25.315Z,99646.06
2023-03-06T11:11:52.089Z,99635.66
2023-03-06T11:14:22.957Z,99643.06
2023-03-06T11:16:54.294Z,99645.91
2023-03-06T11:19:26.487Z,99646.34
2023-03-06T11:22:02.724Z,99637.09
2023-03-06T11:24:37.874Z,99644.03
2023-03-06T11:27:34.379Z,99638.25
2023-03-06T11:30:15.029Z,99628.41
2023-03-06T11:32:53.965Z,99631.78
2023-03-06T11:35:24.412Z,99628.31
2023-03-06T11:38:00.135Z,99625.56
2023-03-06T11:40:42.644Z,99632.75
2023-03-06T11:43:50.841Z,99624.84
2023-03-06T11:46:24.644Z,99614.34
2023-03-06T11:49:22.554Z,99622.53
2023-03-06T11:51:54.675Z,99607.09
2023-03-06T11:54:21.221Z,99606.50
2023-03-06T11:56:58.324Z,99602.97
2023-03-06T11:59:51.007Z,99607.31
2023-03-06T12:02:55.890Z,99600.03
2023-03-06T12:05:31.454Z,99598.50
2023-03-06T12:08:22.757Z,99587.66
2023-03-06T12:10:54.227Z,99594.06
2023-03-06T12:13:41.130Z,99583.94
2023-03-06T12:16:30.059Z,99582.03
2023-03-06T12:19:12.426Z,99586.97
2023-03-06T12:22:03.861Z,99580.97
2023-03-06T12:24:53.802Z,99582.06
2023-03-06T12:27:31.487Z,99584.81
2023-03-06T12:30:10.682Z,99568.75
2023-03-06T12:32:56.294Z,99575.84
2023-03-06T12:35:43.809Z,99564.91
2023-03-06T12:38:36.298Z,99571.81
2023-03-06T12:41:26.884Z,99567.94
2023-03-06T12:44:15.248Z,99567.72
2023-03-06T12:46:46.374Z,99562.41
2023-03-06T12:49:31.372Z,99550.28
2023-03-06T12:51:59.974Z,99556.59
2023-03-06T12:54:30.493Z,99551.00
2023-03-06T12:56:59.175Z,99557.88
2023-03-06T12:59:37.903Z,99552.97
2023-03-06T13:02:13.892Z,99561.31
2023-03-06T13:04:47.957Z,99555.44
2023-03-06T13:07:29.606Z,99551.91
2023-03-06T13:10:02.061Z,99550.66
2023-03-06T13:12:49.808Z,99557.31
2023-03-06T13:15:32.488Z,99557.19
2023-03-06T13:17:59.162Z,99550.13
2023-03-06T13:20:35.264Z,99549.88
2023-03-06T13:23:29.499Z,99539.31
2023-03-06T13:26:10.555Z,99542.00
2023-03-06T13:28:51.024Z,99537.94
2023-03-06T13:31:48.343Z,99535.84
2023-03-06T13:34:38.720Z,99529.41
2023-03-06T13:37:13.903Z,99543.44
2023-03-06T13:40:09.817Z,99524.63
2023-03-06T13:42:56.408Z,99535.16
2023-03-06T13:45:27.112Z,99532.88
2023-03-06T13:48:24.606Z,99528.28
2023-03-06T13:50:44.784Z,99526.88
2023-03-06T13:53:37.432Z,99520.13
2023-03-06T13:56:29.961Z,99518.88
2023-03-06T13:59:15.517Z,99513.53
2023-03-06T14:01:47.900Z,99512.09
2023-03-06T14:04:30.561Z,99507.09
2023-03-06T14:07:23.753Z,99508.06
2023-03-06T14:09:59.207Z,99509.16
2023-03-06T14:12:26.705Z,99507.63
2023-03-06T14:14:57.736Z,99508.47
2023-03-06T14:17:29.090Z,99504.78
2023-03-06T14:20:00.676Z,99498.63
2023-03-06T14:22:26.969Z,99500.56
2023-03-06T14:25:00.936Z,99493.25
2023-03-06T14:27:49.188Z,99492.25
2023-03-06T14:30:23.127Z,99502.50
2023-03-06T14:32:52.506Z,99487.91
2023-03-06T14:35:30.658Z,99484.53
2023-03-06T14:38:00.954Z,99490.84
2023-03-06T14:40:42.542Z,99492.94
2023-03-06T14:43:23.258Z,99485.75
2023-03-06T14:46:01.616Z,99488.16
2023-03-06T14:48:40.038Z,99487.88
2023-03-06T14:51:14.309Z,99489.84
2023-03-06T14:53:40.876Z,99485.31
2023-03-06T14:56:07.637Z,99484.03
2023-03-06T14:58:48.249Z,99485.72
2023-03-06T15:01:15.536Z,99485.59
2023-03-06T15:03:54.916Z,99484.69
2023-03-06T15:06:25.163Z,99484.97
2023-03-06T15:09:24.335Z,99483.44
2023-03-06T15:12:02.900Z,99486.31
2023-03-06T15:14:40.896Z,99480.63
2023-03-06T15:17:19.363Z,99486.31
2023-03-06T15:19:47.677Z,99485.63
2023-03-06T15:22:37.698Z,99487.16
2023-03-06T15:25:16.017Z,99493.25
2023-03-06T15:27:49.343Z,99487.16
2023-03-06T15:30:28.029Z,99486.47
2023-03-06T15:33:18.805Z,99477.69
2023-03-06T15:36:19.524Z,99488.84
2023-03-06T15:38:47.180Z,99489.41
2023-03-06T15:41:29.426Z,99487.44
2023-03-06T15:43:58.027Z,99495.53
2023-03-06T15:46:24.404Z,99491.88
2023-03-06T15:49:00.219Z,99491.69
2023-03-06T15:51:27.439Z,99484.88
2023-03-06T15:53:59.794Z,99498.00
2023-03-06T15:56:35.035Z,99479.31
2023-03-06T15:59:02.127Z,99493.16
2023-03-06T16:01:28.695Z,99489.16
2023-03-06T16:03:55.082Z,99480.69
2023-03-06T16:06:27.088Z,99481.41
2023-03-06T16:08:53.525Z,99483.41
2023-03-06T16:11:38.483Z,99482.72
2023-03-06T16:14:05.132Z,99490.41
2023-03-06T16:16:37.532Z,99484.63
2023-03-06T16:19:09.466Z,99490.56
2023-03-06T16:21:38.280Z,99496.31
2023-03-06T16:24:04.743Z,99493.94
2023-03-06T16:26:34.027Z,99498.66
2023-03-06T16:29:00.878Z,99498.19
2023-03-06T16:31:27.669Z,99503.25
2023-03-06T16:33:54.021Z,99503.03
2023-03-06T16:36:23.430Z,99506.66
2023-03-06T16:38:50.671Z,99502.41
2023-03-06T16:41:18.319Z,99506.72
2023-03-06T16:43:44.681Z,99499.44
2023-03-06T16:46:16.502Z,99502.94
2023-03-06T16:48:43.310Z,99504.63
2023-03-06T16:51:14.693Z,99500.88
2023-03-06T16:53:41.071Z,99488.47
2023-03-06T16:56:13.484Z,99501.91
2023-03-06T16:58:40.327Z,99505.91
2023-03-06T17:01:07.250Z,99506.75
2023-03-06T17:03:34.405Z,99507.84
2023-03-06T17:06:01.115Z,99506.66
2023-03-06T17:08:27.604Z,99507.94
2023-03-06T17:10:53.996Z,99501.94
2023-03-06T17:13:20.399Z,99516.94
2023-03-06T17:15:58.819Z,99519.13
2023-03-06T17:18:27.184Z,99522.75
2023-03-06T17:20:54.314Z,99512.47
2023-03-06T17:23:25.906Z,99522.16
2023-03-06T17:26:18.003Z,99521.69
2023-03-06T17:28:45.604Z,99516.06
2023-03-06T17:31:18.085Z,99516.66
2023-03-06T17:33:45.313Z,99516.41
2023-03-06T17:36:14.270Z,99519.28
2023-03-06T17:38:41.648Z,99518.44
2023-03-06T17:41:09.462Z,99523.88
2023-03-06T17:43:37.254Z,99526.53
2023-03-06T17:46:12.178Z,99532.19
2023-03-06T17:48:39.464Z,99535.81
2023-03-06T17:51:06.588Z,99535.81
2023-03-06T17:53:33.160Z,99543.38
2023-03-06T17:55:59.615Z,99544.59
2023-03-06T17:58:27.037Z,99546.41
2023-03-06T18:00:53.794Z,99544.84
2023-03-06T18:03:20.787Z,99551.72
2023-03-06T18:05:47.320Z,99536.75
2023-03-06T18:08:13.929Z,99533.25
2023-03-06T18:10:41.556Z,99540.84
2023-03-06T18:13:10.408Z,99544.47
2023-03-06T18:15:40.678Z,99548.22
2023-03-06T18:18:08.025Z,99546.41
2023-03-06T18:20:34.885Z,99548.44
2023-03-06T18:23:03.465Z,99554.25
2023-03-06T18:25:32.579Z,99552.44
2023-03-06T18:27:59.234Z,99551.34
2023-03-06T18:30:26.394Z,99553.13
2023-03-06T18:32:53.222Z,99556.50
2023-03-06T18:35:20.016Z,99552.03
2023-03-06T18:37:46.482Z,99548.53
2023-03-06T18:40:13.350Z,99545.16
2023-03-06T18:42:39.686Z,99545.38
2023-03-06T18:45:06.930Z,99546.81
2023-03-06T18:47:33.617Z,99539.09
2023-03-06T18:49:59.904Z,99548.25
2023-03-06T18:52:26.195Z,99554.59
2023-03-06T18:54:53.377Z,99553.28
2023-03-06T18:57:19.709Z,99552.53
2023-03-06T18:59:46.089Z,99546.75
2023-03-06T19:02:12.882Z,99548.16
2023-03-06T19:04:39.623Z,99539.22
2023-03-06T19:07:06.359Z,99531.56
2023-03-06T19:09:32.774Z,99537.63
2023-03-06T19:11:59.790Z,99531.84
2023-03-06T19:14:28.223Z,99541.41
2023-03-06T19:16:55.086Z,99528.22
2023-03-06T19:19:26.077Z,99537.72
2023-03-06T19:21:53.393Z,99533.38
2023-03-06T19:24:19.883Z,99534.00
2023-03-06T19:26:46.279Z,99528.56
2023-03-06T19:29:12.696Z,99520.09
2023-03-06T19:31:39.446Z,99535.75
2023-03-06T19:34:05.833Z,99539.34
2023-03-06T19:36:34.086Z,99531.84
2023-03-06T19:39:03.127Z,99534.69
2023-03-06T19:41:29.966Z,99534.41
2023-03-06T19:43:58.805Z,99532.19
2023-03-06T19:46:26.276Z,99505.53
2023-03-06T19:49:11.585Z,99529.03
2023-03-06T19:51:38.182Z,99528.94
2023-03-06T19:54:04.602Z,99528.19
2023-03-06T19:56:31.829Z,99535.56
2023-03-06T19:58:58.239Z,99530.25
2023-03-06T20:01:27.089Z,99524.75
2023-03-06T20:03:58.712Z,99525.63
2023-03-06T20:06:28.468Z,99516.00
2023-03-06T20:08:55.453Z,99514.00
2023-03-06T20:11:24.045Z,99514.25
2023-03-06T20:13:50.761Z,99494.22
2023-03-06T20:16:17.811Z,99509.78
2023-03-06T20:18:45.498Z,99516.03
2023-03-06T20:21:14.157Z,99509.50
2023-03-06T20:23:40.762Z,99505.88
2023-03-06T20:26:09.800Z,99505.28
2023-03-06T20:28:39.132Z,99496.19
2023-03-06T20:31:11.346Z,99503.06
2023-03-06T20:33:37.802Z,99506.78
2023-03-06T20:36:04.588Z,99502.31
2023-03-06T20:38:31.014Z,99501.88
2023-03-06T20:40:58.359Z,99499.13
2023-03-06T20:43:24.708Z,99505.16
2023-03-06T20:45:59.009Z,99500.84
2023-03-06T20:48:25.425Z,99498.31
2023-03-06T20:51:02.855Z,99502.53
2023-03-06T20:53:29.657Z,99504.75
2023-03-06T20:55:56.450Z,99506.56
2023-03-06T20:58:25.770Z,99497.69
2023-03-06T21:00:52.542Z,99498.63
2023-03-06T21:03:18.870Z,99503.41
2023-03-06T21:05:48.663Z,99496.09
2023-03-06T21:08:16.072Z,99501.25
2023-03-06T21:10:44.796Z,99500.41
2023-03-06T21:13:11.458Z,99489.53
2023-03-06T21:15:39.366Z,99488.91
2023-03-06T21:18:06.058Z,99490.47
2023-03-06T21:20:33.472Z,99489.53
2023-03-06T21:23:01.601Z,99487.09
2023-03-06T21:25:29.033Z,99482.88
2023-03-06T21:27:55.809Z,99475.50
2023-03-06T21:30:22.209Z,99471.28
2023-03-06T21:32:50.707Z,99464.25
2023-03-06T21:35:17.400Z,99467.78
2023-03-06T21:37:43.731Z,99466.72
2023-03-06T21:40:10.704Z,99469.34
2023-03-06T21:42:37.030Z,99470.09
2023-03-06T21:45:05.088Z,99469.31
2023-03-06T21:47:37.529Z,99457.88
2023-03-06T21:50:06.223Z,99461.38
2023-03-06T21:52:32.658Z,99463.59
2023-03-06T21:54:59.132Z,99462.16
2023-03-06T21:57:25.653Z,99464.44
2023-03-06T21:59:52.040Z,99448.56
2023-03-06T22:02:18.693Z,99449.53
2023-03-06T22:04:50.026Z,99450.59
2023-03-06T22:07:16.916Z,99447.78
2023-03-06T22:09:43.210Z,99450.69
2023-03-06T22:12:09.730Z,99449.47
2023-03-06T22:14:36.109Z,99437.63
2023-03-06T22:17:02.854Z,99442.91
2023-03-06T22:19:29.729Z,99440.38
2023-03-06T22:21:56.171Z,99437.81
2023-03-06T22:24:22.613Z,99430.53
2023-03-06T22:26:48.918Z,99434.13
2023-03-06T22:29:15.327Z,99435.38
2023-03-06T22:31:41.709Z,99432.31
2023-03-06T22:34:08.096Z,99434.44
2023-03-06T22:36:34.525Z,99426.69
2023-03-06T22:39:02.914Z,99433.13
2023-03-06T22:41:29.380Z,99423.78
2023-03-06T22:43:57.162Z,99426.84
2023-03-06T22:46:23.694Z,99430.13
2023-03-06T22:48:50.066Z,99431.03
2023-03-06T22:51:19.210Z,99427.09
2023-03-06T22:53:46.908Z,99426.25
2023-03-06T22:56:15.537Z,99425.28
2023-03-06T22:58:44.524Z,99422.56
2023-03-06T23:01:13.486Z,99433.75
2023-03-06T23:03:41.818Z,99414.38
2023-03-06T23:06:10.589Z,99418.81
2023-03-06T23:08:37.424Z,99417.88
2023-03-06T23:11:12.282Z,99401.84
2023-03-06T23:13:39.306Z,99405.47
2023-03-06T23:16:07.516Z,99414.66
2023-03-06T23:18:36.939Z,99406.09
2023-03-06T23:21:15.082Z,99415.25
2023-03-06T23:23:44.072Z,99404.66
2023-03-06T23:26:13.301Z,99407.69
2023-03-06T23:28:40.764Z,99408.63
2023-03-06T23:31:17.633Z,99408.06
2023-03-06T23:33:44.397Z,99399.28
2023-03-06T23:36:13.468Z,99397.09
2023-03-06T23:38:40.779Z,99406.16
2023-03-06T23:41:10.390Z,99395.69
2023-03-06T23:43:37.079Z,99406.25
2023-03-06T23:46:04.863Z,99404.94
2023-03-06T23:48:31.429Z,99404.09
2023-03-06T23:50:58.101Z,99389.91
2023-03-06T23:53:24.620Z,99394.16
2023-03-06T23:55:51.209Z,99393.19
2023-03-06T23:58:18.873Z,99393.91
